CheckWX is a tool to help pilots better visualize weather data.  It is not intended as a substitute for an official pre-flight weather briefing.

22:16:35 UTC

KMEM METAR
Memphis International Airport
Memphis, Tennessee, USA
Current

23 mins ago

KMEM 152154Z 17017G20KT 10SM BKN028 BKN080 27/23 A2992 RMK AO2 PK WND 19027/2122 SLP129 T02670228 $
Observed
Jul-15 @ 21:54 UTC
Wind
  • 170° at 17 KTS
  • Gusting to 20 KTS
Visibility
10 SM
Flight Rules
MVFR
Cloud Levels
  • Broken at 2,800' AGL
  • Broken at 8,000' AGL
Temperature
27°C / 81°F
Dewpoint
23°C / 73°F
Heat Index
30°C / 86°F
Humidity
79%
Altimeter
29.92" Hg
Pressure
1013.22 hPa
Previous

36 mins ago

KMEM 152141Z 20013G27KT 10SM BKN028 BKN080 26/22 A2993 RMK AO2 PK WND 19027/2122 T02610222 $
Observed
Jul-15 @ 21:41 UTC
Wind
  • 200° at 13 KTS
  • Gusting to 27 KTS
Visibility
10 SM
Flight Rules
MVFR
Cloud Levels
  • Broken at 2,800' AGL
  • Broken at 8,000' AGL
Temperature
26°C / 79°F
Dewpoint
22°C / 72°F
Humidity
79%
Altimeter
29.93" Hg
Pressure
1013.52 hPa
Previous

1 hour ago

KMEM 152102Z 19017G24KT 10SM FEW010 SCT022 BKN055 BKN240 27/23 A2993 RMK AO2 LTG DSNT E T02720233 $
Observed
Jul-15 @ 21:02 UTC
Wind
  • 190° at 17 KTS
  • Gusting to 24 KTS
Visibility
10 SM
Flight Rules
VFR
Cloud Levels
  • Few at 1,000' AGL
  • Scattered at 2,200' AGL
  • Broken at 5,500' AGL
  • Broken at 24,000' AGL
Temperature
27°C / 81°F
Dewpoint
23°C / 73°F
Heat Index
30°C / 86°F
Humidity
79%
Altimeter
29.93" Hg
Pressure
1013.52 hPa